Flight Track Log - Related Links

Times and Time Zones

All times are in EDT time to prevent confusion due to time zone crossing. See the N8425N flight status page for this flight to view local times or setup timezone preferences in your user account.

Time Position Orientation Groundspeed Altitude Reporting Facility
EDT Latitude Longitude Course Direction KTS MPH feet Rate Location/Type
Mon 09:10:16 AM 33.7833 -116.3500 301° West 96 110 11,700  Level Southern California TRACON
Mon 09:11:22 AM 33.8000 -116.3833 301° West 103 119 2,600 -4,063 Descending Southern California TRACON
Mon 09:12:23 AM 33.8167 -116.4000 320° Northwest 108 124 3,100 586 Climbing Southern California TRACON
Mon 09:13:35 AM 33.8500 -116.4333 320° Northwest 109 125 3,900 591 Climbing Southern California TRACON
Mon 09:14:35 AM 33.8667 -116.4500 320° Northwest 121 139 4,400 474 Climbing Southern California TRACON
Mon 09:15:29 AM 33.9000 -116.4500 360° North 126 145 4,800 476 Climbing Southern California TRACON
Mon 09:16:41 AM 33.9500 -116.4500 360° North 125 144 5,400 545 Climbing Southern California TRACON
Mon 09:17:41 AM 33.9833 -116.4667 337° Northwest 125 144 6,000 579 Climbing Southern California TRACON
Mon 09:18:35 AM 34.0000 -116.4833 320° Northwest 124 143 6,500 331 Climbing Southern California TRACON
Mon 09:20:06 AM 34.0489 -116.4922 351° North 128 147 6,800 589 Climbing Los Angeles Center
Mon 09:22:09 AM 34.1183 -116.5239 339° North 134 154 8,600 848 Climbing Los Angeles Center
Mon 09:23:10 AM 34.1564 -116.5342 347° North 138 159 9,400 639 Climbing Los Angeles Center
Mon 09:24:11 AM 34.1933 -116.5531 337° Northwest 142 163 9,900 541 Climbing Los Angeles Center
Mon 09:25:12 AM 34.2294 -116.5700 339° North 141 162 10,500 541 Climbing Los Angeles Center
Mon 09:26:13 AM 34.2683 -116.5850 342° North 145 167 11,000 488 Climbing Los Angeles Center
Mon 09:27:15 AM 34.3069 -116.6006 342° North 146 168 11,500 492 Climbing Los Angeles Center
Mon 09:28:15 AM 34.3478 -116.6156 343° North 152 175 12,000 496 Climbing Los Angeles Center
Mon 09:29:16 AM 34.3881 -116.6328 341° North 154 177 12,500 344 Climbing Los Angeles Center
Mon 09:30:17 AM 34.4411 -116.6539 342° North 169 194 12,700 49 Climbing Los Angeles Center
Mon 09:31:19 AM 34.4869 -116.6708 343° North 171 197 12,600  Descending Los Angeles Center
Mon 09:32:20 AM 34.5086 -116.7119 303° West 159 183 12,700  Climbing Los Angeles Center
Mon 09:33:21 AM 34.5114 -116.7642 274° West 153 176 12,600 -49 Descending Los Angeles Center
Mon 09:34:22 AM 34.5169 -116.8147 278° West 152 175 12,600  Level Los Angeles Center
Mon 09:35:23 AM 34.5214 -116.8653 276° West 151 174 12,600  Level Los Angeles Center
Mon 09:36:25 AM 34.5258 -116.9164 276° West 152 175 12,600  Level Los Angeles Center
Mon 09:37:26 AM 34.5311 -116.9683 277° West 155 178 12,600  Level Los Angeles Center
Mon 09:38:27 AM 34.5358 -117.0192 276° West 154 177 12,600 49 Level Los Angeles Center
Mon 09:39:29 AM 34.5400 -117.0708 276° West 153 176 12,700 49 Climbing Los Angeles Center
Mon 09:40:30 AM 34.5458 -117.1219 278° West 154 177 12,700  Level Los Angeles Center
Mon 09:41:32 AM 34.5511 -117.1814 276° West 149 171 12,700  Level Los Angeles Center
Mon 09:42:33 AM 34.5550 -117.2300 276° West 147 169 12,700  Level Los Angeles Center
Mon 09:43:34 AM 34.5594 -117.2803 276° West 148 170 12,700 -49 Level Los Angeles Center
Mon 09:44:36 AM 34.5631 -117.3314 275° West 150 173 12,600  Descending Los Angeles Center
Mon 09:45:49 AM 34.5694 -117.3792 279° West 148 170 12,700 44 Climbing Los Angeles Center
Mon 09:46:51 AM 34.5750 -117.4375 277° West 145 167 12,700  Level Los Angeles Center
Mon 09:47:53 AM 34.5797 -117.4872 277° West 147 169 12,700  Level Los Angeles Center
Mon 09:48:54 AM 34.5853 -117.5486 276° West 151 174 12,700 -49 Level Los Angeles Center
Mon 09:49:56 AM 34.5894 -117.5997 276° West 152 175 12,600  Descending Los Angeles Center
Mon 09:50:57 AM 34.5944 -117.6508 277° West 153 176 12,700 49 Climbing Los Angeles Center
Mon 09:51:59 AM 34.5989 -117.7014 276° West 152 175 12,700  Level Los Angeles Center
Mon 09:53:01 AM 34.6033 -117.7508 276° West 149 171 12,700  Level Los Angeles Center
Mon 09:54:02 AM 34.6081 -117.8025 276° West 154 177 12,700  Level Los Angeles Center
Mon 09:55:04 AM 34.6125 -117.8519 276° West 149 171 12,700  Level Los Angeles Center
Mon 09:56:05 AM 34.6167 -117.9019 276° West 150 173 12,700  Level Los Angeles Center
Mon 09:57:07 AM 34.6217 -117.9544 277° West 154 177 12,700  Level Los Angeles Center
Mon 09:58:22 AM 34.6264 -118.0153 275° West 151 174 12,700 -44 Level Los Angeles Center
Mon 09:59:24 AM 34.6353 -118.0744 280° West 150 173 12,600  Descending Los Angeles Center
Mon 10:00:26 AM 34.6703 -118.1114 319° Northwest 162 186 12,700 48 Climbing Los Angeles Center
Mon 10:01:28 AM 34.7025 -118.1508 315° West 165 190 12,700  Level Los Angeles Center
Mon 10:02:29 AM 34.7350 -118.1878 317° Northwest 161 185 12,700  Level Los Angeles Center
Mon 10:03:31 AM 34.7672 -118.2264 315° West 163 188 12,700  Level Los Angeles Center
Mon 10:04:33 AM 34.8056 -118.2728 315° West 162 186 12,700  Level Los Angeles Center
Mon 10:05:35 AM 34.8378 -118.3131 314° West 165 190 12,700 -49 Level Los Angeles Center
Mon 10:06:36 AM 34.8714 -118.3528 316° Northwest 169 194 12,600 -49 Descending Los Angeles Center
Mon 10:07:38 AM 34.9025 -118.3911 315° West 163 188 12,600 -48 Level Los Angeles Center
Mon 10:08:40 AM 34.9361 -118.4294 317° Northwest 166 191 12,500 -48 Descending Los Angeles Center
Mon 10:09:42 AM 34.9683 -118.4683 315° West 163 188 12,500  Level Los Angeles Center
Mon 10:10:43 AM 35.0036 -118.5097 316° Northwest 163 188 12,500  Level Los Angeles Center
Mon 10:11:45 AM 35.0342 -118.5481 314° West 159 183 12,500  Level Los Angeles Center
Mon 10:12:47 AM 35.0658 -118.5856 316° Northwest 158 182 12,500  Level Los Angeles Center
Mon 10:13:49 AM 35.0975 -118.6239 315° West 160 184 12,500  Level Los Angeles Center
Mon 10:14:51 AM 35.1336 -118.6694 314° West 158 182 12,500  Level Los Angeles Center
Mon 10:15:53 AM 35.1658 -118.7069 316° Northwest 159 183 12,500  Level Los Angeles Center
Mon 10:16:54 AM 35.1981 -118.7447 316° Northwest 160 184 12,500  Level Los Angeles Center
Mon 10:17:56 AM 35.2367 -118.7719 330° Northwest 163 188 12,500  Level Los Angeles Center
Mon 10:18:58 AM 35.2767 -118.7969 333° Northwest 163 188 12,500  Level Los Angeles Center
Mon 10:20:00 AM 35.3156 -118.8231 331° Northwest 161 185 12,500  Level Los Angeles Center
Mon 10:21:02 AM 35.3636 -118.8550 332° Northwest 162 186 12,500  Level Los Angeles Center
Mon 10:22:04 AM 35.4031 -118.8808 332° Northwest 162 186 12,500  Level Los Angeles Center
Mon 10:23:06 AM 35.4428 -118.9064 332° Northwest 162 186 12,500  Level Los Angeles Center
Mon 10:24:07 AM 35.4803 -118.9342 329° Northwest 160 184 12,500  Level Los Angeles Center
Mon 10:25:09 AM 35.5206 -118.9597 333° Northwest 162 186 12,500  Level Los Angeles Center
Mon 10:26:11 AM 35.5589 -118.9856 331° Northwest 159 183 12,500  Level Los Angeles Center
Mon 10:27:13 AM 35.6058 -119.0181 331° Northwest 160 184 12,500  Level Los Angeles Center
Mon 10:28:15 AM 35.6456 -119.0439 332° Northwest 162 186 12,500  Level Los Angeles Center
Mon 10:29:17 AM 35.6844 -119.0708 331° Northwest 162 186 12,500  Level Los Angeles Center
Mon 10:30:19 AM 35.7236 -119.0967 332° Northwest 160 184 12,500  Level Los Angeles Center
Mon 10:31:22 AM 35.7617 -119.1225 331° Northwest 159 183 12,500  Level Los Angeles Center
Mon 10:32:23 AM 35.8011 -119.1492 331° Northwest 159 183 12,500  Level Los Angeles Center
Mon 10:33:24 AM 35.8494 -119.1819 331° Northwest 162 186 12,500 -52 Level Los Angeles Center
Mon 10:34:19 AM 35.8808 -119.2017 333° Northwest 164 189 12,400 -52 Descending Oakland Center
Mon 10:35:20 AM 35.9211 -119.2303 330° Northwest 166 191 12,400  Level Oakland Center
Mon 10:36:21 AM 35.9606 -119.2564 332° Northwest 163 188 12,400  Level Oakland Center
Mon 10:37:22 AM 36.0003 -119.2828 332° Northwest 162 186 12,400  Level Oakland Center
Mon 10:38:24 AM 36.0503 -119.3164 331° Northwest 165 190 12,400  Level Oakland Center
Mon 10:39:25 AM 36.0906 -119.3428 332° Northwest 166 191 12,400  Level Oakland Center
Mon 10:40:26 AM 36.1300 -119.3708 330° Northwest 165 190 12,400  Level Oakland Center
Mon 10:41:28 AM 36.1708 -119.3975 332° Northwest 166 191 12,400  Level Oakland Center
Mon 10:42:29 AM 36.2106 -119.4250 331° Northwest 165 190 12,400  Level Oakland Center
Mon 10:43:30 AM 36.2497 -119.4517 331° Northwest 164 189 12,400  Level Oakland Center
Mon 10:44:31 AM 36.2897 -119.4786 332° Northwest 163 188 12,400  Level Oakland Center
Mon 10:45:33 AM 36.3294 -119.5056 331° Northwest 162 186 12,400  Level Oakland Center
Mon 10:46:34 AM 36.3694 -119.5333 331° Northwest 166 191 12,400 49 Level Oakland Center
Mon 10:47:35 AM 36.4175 -119.5672 330° Northwest 166 191 12,500 49 Climbing Oakland Center
Mon 10:48:37 AM 36.4550 -119.5992 326° Northwest 165 190 12,500 -49 Level Oakland Center
Mon 10:49:38 AM 36.4961 -119.6244 334° Northwest 165 190 12,400 -49 Descending Oakland Center
Mon 10:50:39 AM 36.5314 -119.6614 320° Northwest 165 190 12,400  Level Oakland Center
Mon 10:51:41 AM 36.5761 -119.6800 342° North 171 197 12,400  Level Oakland Center
Mon 10:52:42 AM 36.6189 -119.7036 336° Northwest 169 194 12,400  Level Oakland Center
Mon 10:53:43 AM 36.6597 -119.7325 330° Northwest 168 193 12,400  Level Oakland Center
Mon 10:54:44 AM 36.7003 -119.7614 330° Northwest 168 193 12,400  Level Oakland Center
Mon 10:55:46 AM 36.7414 -119.7894 331° Northwest 168 193 12,400  Level Oakland Center
Mon 10:56:47 AM 36.7911 -119.8247 330° Northwest 172 198 12,400  Level Oakland Center
Mon 10:57:48 AM 36.8319 -119.8528 331° Northwest 168 193 12,400  Level Oakland Center
Mon 10:58:50 AM 36.8731 -119.8814 331° Northwest 169 194 12,400  Level Oakland Center
Mon 10:59:51 AM 36.9144 -119.9106 331° Northwest 171 197 12,400  Level Oakland Center
Mon 11:00:52 AM 36.9558 -119.9397 331° Northwest 172 198 12,400  Level Oakland Center
Mon 11:01:54 AM 36.9981 -119.9694 331° Northwest 173 199 12,400 49 Level Oakland Center
Mon 11:02:55 AM 37.0394 -119.9983 331° Northwest 172 198 12,500 49 Climbing Oakland Center
Mon 11:03:56 AM 37.0858 -120.0317 330° Northwest 174 200 12,500  Level Oakland Center
Mon 11:04:58 AM 37.1242 -120.0578 331° Northwest 171 197 12,500  Level Oakland Center
Mon 11:05:59 AM 37.1658 -120.0878 330° Northwest 173 199 12,500  Level Oakland Center
Mon 11:07:00 AM 37.2164 -120.1225 331° Northwest 170 196 12,500  Level Oakland Center
Mon 11:08:01 AM 37.2603 -120.1494 334° Northwest 175 201 12,500  Level Oakland Center
Mon 11:09:03 AM 37.3011 -120.1819 328° Northwest 174 200 12,500  Level Oakland Center
Mon 11:10:04 AM 37.3447 -120.2111 332° Northwest 176 203 12,500  Level Oakland Center
Mon 11:11:05 AM 37.3869 -120.2411 331° Northwest 176 203 12,500  Level Oakland Center
Mon 11:12:07 AM 37.4303 -120.2694 333° Northwest 178 205 12,500  Level Oakland Center
Mon 11:13:08 AM 37.4733 -120.3000 331° Northwest 180 207 12,500  Level Oakland Center
Mon 11:14:09 AM 37.5161 -120.3289 332° Northwest 190 219 12,500  Level Oakland Center
Mon 11:15:10 AM 37.5561 -120.3667 323° Northwest 179 206 12,500  Level Oakland Center
Mon 11:16:12 AM 37.6008 -120.3919 336° Northwest 176 203 12,500  Level Oakland Center
Mon 11:17:13 AM 37.6544 -120.4256 334° Northwest 188 216 12,500  Level Oakland Center
Mon 11:18:14 AM 37.6964 -120.4572 329° Northwest 178 205 12,500  Level Oakland Center
Mon 11:19:16 AM 37.7400 -120.4867 332° Northwest 176 203 12,500  Level Oakland Center
Mon 11:20:17 AM 37.7817 -120.5183 329° Northwest 176 203 12,500  Level Oakland Center
Mon 11:21:18 AM 37.8256 -120.5475 332° Northwest 177 204 12,500  Level Oakland Center
Mon 11:22:20 AM 37.8686 -120.5789 330° Northwest 178 205 12,500  Level Oakland Center
Mon 11:23:21 AM 37.9111 -120.6097 330° Northwest 177 204 12,500  Level Oakland Center
Mon 11:24:22 AM 37.9536 -120.6414 330° Northwest 175 201 12,500  Level Oakland Center
Mon 11:25:23 AM 37.9969 -120.6708 332° Northwest 177 204 12,500  Level Oakland Center
Mon 11:26:25 AM 38.0397 -120.7022 330° Northwest 178 205 12,500  Level Oakland Center
Mon 11:27:26 AM 38.0903 -120.7381 331° Northwest 175 201 12,500  Level Oakland Center
Mon 11:28:28 AM 38.1319 -120.7700 329° Northwest 174 200 12,500  Level Oakland Center
Mon 11:29:29 AM 38.1750 -120.8000 331° Northwest 175 201 12,500  Level Oakland Center
Mon 11:30:30 AM 38.2167 -120.8303 330° Northwest 175 201 12,500  Level Oakland Center
Mon 11:31:32 AM 38.2581 -120.8608 330° Northwest 174 200 12,500  Level Oakland Center
Mon 11:32:33 AM 38.3003 -120.8911 331° Northwest 174 200 12,500  Level Oakland Center
Mon 11:33:34 AM 38.3406 -120.9211 330° Northwest 170 196 12,500  Level Oakland Center
Mon 11:34:36 AM 38.3819 -120.9514 330° Northwest 171 197 12,500  Level Oakland Center
Mon 11:35:37 AM 38.4222 -120.9797 331° Northwest 168 193 12,500  Level Oakland Center
Mon 11:36:38 AM 38.4706 -121.0147 330° Northwest 168 193 12,500  Level Oakland Center
Mon 11:37:40 AM 38.5117 -121.0450 330° Northwest 170 196 12,500  Level Oakland Center
Mon 11:38:41 AM 38.5531 -121.0758 330° Northwest 172 198 12,500  Level Oakland Center
Mon 11:39:42 AM 38.5939 -121.1061 330° Northwest 172 198 12,500  Level Oakland Center
Mon 11:40:44 AM 38.6347 -121.1361 330° Northwest 172 198 12,500  Level Oakland Center
Mon 11:41:45 AM 38.6817 -121.1700 331° Northwest 171 197 12,500  Level Oakland Center
Mon 11:42:47 AM 38.7164 -121.1958 330° Northwest 169 194 12,500  Level Oakland Center
Mon 11:43:48 AM 38.7658 -121.2314 331° Northwest 170 196 12,500  Level Oakland Center
Mon 11:44:50 AM 38.8067 -121.2619 330° Northwest 170 196 12,500  Level Oakland Center
Mon 11:45:51 AM 38.8483 -121.2914 331° Northwest 171 197 12,500  Level Oakland Center
Mon 11:46:52 AM 38.8892 -121.3225 329° Northwest 171 197 12,500  Level Oakland Center
Mon 11:47:54 AM 38.9300 -121.3511 331° Northwest 168 193 12,500  Level Oakland Center
Mon 11:49:09 AM 38.9833 -121.4000 325° Northwest 169 194 12,500  Level Northern Cal TRACON
Mon 11:50:09 AM 39.0333 -121.4333 333° Northwest 170 196 12,500  Level Northern Cal TRACON
Mon 11:52:00 AM 39.1019 -121.4789 333° Northwest 169 194 12,500  Level Oakland Center
Mon 11:53:01 AM 39.1428 -121.5089 330° Northwest 169 194 12,500  Level Oakland Center
Mon 11:54:03 AM 39.1842 -121.5400 330° Northwest 172 198 12,500  Level Oakland Center
Mon 11:55:04 AM 39.2247 -121.5697 330° Northwest 168 193 12,500  Level Oakland Center
Mon 11:56:06 AM 39.2664 -121.6006 330° Northwest 172 198 12,500  Level Oakland Center
Mon 11:57:07 AM 39.3069 -121.6319 329° Northwest 170 196 12,500  Level Oakland Center
Mon 11:58:09 AM 39.3503 -121.6561 337° Northwest 170 196 12,500  Level Oakland Center
Mon 11:59:10 AM 39.3983 -121.6619 355° North 171 197 12,500  Level Oakland Center
Mon 12:00:12 PM 39.4561 -121.6714 353° North 173 199 12,500  Level Oakland Center
Mon 12:01:13 PM 39.4989 -121.6786 353° North 171 197 12,500  Level Oakland Center
Mon 12:02:15 PM 39.5458 -121.6886 351° North 170 196 12,500  Level Oakland Center
Mon 12:03:16 PM 39.5925 -121.6953 354° North 168 193 12,500  Level Oakland Center
Mon 12:04:17 PM 39.6492 -121.7058 352° North 170 196 12,500  Level Oakland Center
Mon 12:05:19 PM 39.6972 -121.7144 352° North 173 199 12,500  Level Oakland Center
Mon 12:06:20 PM 39.7444 -121.7219 353° North 171 197 12,500  Level Oakland Center
Mon 12:07:22 PM 39.7908 -121.7308 352° North 169 194 12,500  Level Oakland Center
Mon 12:08:23 PM 39.8378 -121.7389 352° North 169 194 12,500  Level Oakland Center
Mon 12:09:25 PM 39.8842 -121.7469 352° North 169 194 12,500  Level Oakland Center
Mon 12:10:26 PM 39.9319 -121.7553 352° North 171 197 12,500  Level Oakland Center
Mon 12:11:28 PM 39.9778 -121.7642 352° North 168 193 12,500  Level Oakland Center
Mon 12:12:30 PM 40.0342 -121.7731 353° North 170 196 12,500  Level Oakland Center
Mon 12:13:31 PM 40.0808 -121.7817 352° North 168 193 12,500  Level Oakland Center
Mon 12:14:33 PM 40.1275 -121.7889 353° North 169 194 12,500  Level Oakland Center
Mon 12:15:34 PM 40.1739 -121.7983 351° North 167 192 12,500  Level Oakland Center
Mon 12:16:36 PM 40.2206 -121.8056 353° North 169 194 12,500  Level Oakland Center
Mon 12:17:37 PM 40.2658 -121.8206 346° North 169 194 12,500  Level Oakland Center
Mon 12:18:39 PM 40.3217 -121.8378 347° North 171 197 12,500  Level Oakland Center
Mon 12:19:41 PM 40.3681 -121.8508 348° North 169 194 12,500  Level Oakland Center
Mon 12:20:42 PM 40.4139 -121.8664 346° North 170 196 12,500  Level Oakland Center
Mon 12:21:44 PM 40.4606 -121.8800 347° North 171 197 12,500  Level Oakland Center
Mon 12:22:46 PM 40.5064 -121.8953 346° North 170 196 12,500  Level Oakland Center
Mon 12:23:47 PM 40.5533 -121.9114 345° North 173 199 12,500  Level Oakland Center
Mon 12:24:49 PM 40.5997 -121.9264 346° North 172 198 12,500  Level Oakland Center
Mon 12:25:50 PM 40.6550 -121.9461 345° North 172 198 12,500  Level Oakland Center
Mon 12:26:52 PM 40.7014 -121.9625 345° North 173 199 12,500  Level Oakland Center
Mon 12:27:54 PM 40.7472 -121.9786 345° North 171 197 12,500  Level Oakland Center
Mon 12:28:55 PM 40.7928 -121.9953 345° North 171 197 12,500  Level Oakland Center
Mon 12:29:57 PM 40.8389 -122.0117 345° North 172 198 12,500  Level Oakland Center
Mon 12:30:58 PM 40.8858 -122.0267 346° North 173 199 12,500  Level Oakland Center
Mon 12:32:00 PM 40.9317 -122.0481 341° North 174 200 12,500  Level Oakland Center
Mon 12:33:01 PM 40.9850 -122.0736 340° North 172 198 12,500  Level Oakland Center
Mon 12:34:03 PM 41.0303 -122.0922 343° North 171 197 12,500  Level Oakland Center
Mon 12:35:04 PM 41.0756 -122.1139 340° North 172 198 12,500  Level Oakland Center
Mon 12:36:06 PM 41.1206 -122.1344 341° North 172 198 12,500  Level Oakland Center
Mon 12:37:08 PM 41.1647 -122.1575 339° North 171 197 12,500  Level Oakland Center
Mon 12:38:09 PM 41.2078 -122.1808 338° Northwest 169 194 12,500 -49 Level Oakland Center
Mon 12:39:11 PM 41.2536 -122.2039 339° North 173 199 12,400 -49 Descending Oakland Center
Mon 12:40:12 PM 41.2953 -122.2347 331° Northwest 172 198 12,400  Level Oakland Center
Mon 12:41:14 PM 41.3436 -122.2722 330° Northwest 170 196 12,400  Level Oakland Center
Mon 12:42:15 PM 41.3808 -122.2950 335° Northwest 169 194 12,400  Level Oakland Center
Mon 12:43:17 PM 41.4286 -122.2978 358° North 170 196 12,400  Level Oakland Center
Mon 12:44:18 PM 41.4761 -122.3022 356° North 171 197 12,400  Level Oakland Center
Mon 12:45:20 PM 41.5325 -122.3094 355° North 170 196 12,400  Level Oakland Center
Mon 12:46:21 PM 41.5783 -122.3150 355° North 167 192 12,400  Level Oakland Center
Mon 12:47:23 PM 41.6250 -122.3208 355° North 168 193 12,400  Level Oakland Center
Mon 12:48:24 PM 41.6719 -122.3267 355° North 169 194 12,400  Level Oakland Center
Mon 12:49:26 PM 41.7183 -122.3322 355° North 168 193 12,400  Level Oakland Center
Mon 12:50:28 PM 41.7644 -122.3381 355° North 167 192 12,400  Level Oakland Center
Mon 12:51:29 PM 41.8119 -122.3433 355° North 169 194 12,400 32 Level Oakland Center
Mon 12:53:34 PM 41.9172 -122.3547 355° North 166 191 12,500 32 Climbing Seattle Center
Mon 12:54:35 PM 41.9642 -122.3611 354° North 169 194 12,500  Level Seattle Center
Mon 12:55:37 PM 42.0106 -122.3661 355° North 167 192 12,500  Level Seattle Center
Mon 12:56:38 PM 42.0578 -122.3725 354° North 168 193 12,500  Level Seattle Center
Mon 12:57:39 PM 42.1047 -122.3789 354° North 169 194 12,500  Level Seattle Center
Mon 12:58:40 PM 42.1517 -122.3828 356° North 167 192 12,500  Level Seattle Center
Mon 12:59:41 PM 42.1981 -122.3872 356° North 168 193 12,500  Level Seattle Center
Mon 01:00:43 PM 42.2464 -122.3942 354° North 172 198 12,500  Level Seattle Center
Mon 01:01:44 PM 42.2944 -122.3994 355° North 172 198 12,500  Level Seattle Center
Mon 01:02:45 PM 42.3411 -122.4056 354° North 169 194 12,500  Level Seattle Center
Mon 01:03:46 PM 42.3875 -122.4111 355° North 167 192 12,500  Level Seattle Center
Mon 01:04:47 PM 42.4433 -122.4200 353° North 169 194 12,500  Level Seattle Center
Mon 01:05:49 PM 42.4903 -122.4242 356° North 169 194 12,500  Level Seattle Center
Mon 01:06:50 PM 42.5372 -122.4286 356° North 168 193 12,500  Level Seattle Center
Mon 01:07:51 PM 42.5844 -122.4350 354° North 170 196 12,500  Level Seattle Center
Mon 01:08:52 PM 42.6311 -122.4417 354° North 168 193 12,500  Level Seattle Center
Mon 01:09:53 PM 42.6778 -122.4456 356° North 168 193 12,500  Level Seattle Center
Mon 01:10:54 PM 42.7244 -122.4519 354° North 169 194 12,500  Level Seattle Center
Mon 01:11:56 PM 42.7722 -122.4567 356° North 171 197 12,500  Level Seattle Center
Mon 01:12:57 PM 42.8192 -122.4639 354° North 171 197 12,500  Level Seattle Center
Mon 01:13:58 PM 42.8667 -122.4683 356° North 171 197 12,500  Level Seattle Center
Mon 01:14:59 PM 42.9133 -122.4753 354° North 166 191 12,500  Level Seattle Center
Mon 01:16:00 PM 42.9697 -122.4817 355° North 168 193 12,500  Level Seattle Center
Mon 01:17:02 PM 43.0167 -122.4869 355° North 167 192 12,500  Level Seattle Center
Mon 01:18:03 PM 43.0631 -122.4914 356° North 167 192 12,500  Level Seattle Center
Mon 01:19:04 PM 43.1089 -122.4961 356° North 165 190 12,500  Level Seattle Center
Mon 01:20:05 PM 43.1544 -122.5058 351° North 166 191 12,500  Level Seattle Center
Mon 01:21:06 PM 43.2017 -122.5097 357° North 167 192 12,500  Level Seattle Center
Mon 01:22:08 PM 43.2481 -122.5144 356° North 168 193 12,500  Level Seattle Center
Mon 01:23:09 PM 43.2939 -122.5192 356° North 167 192 12,500  Level Seattle Center
Mon 01:24:10 PM 43.3392 -122.5261 354° North 166 191 12,500  Level Seattle Center
Mon 01:25:11 PM 43.3856 -122.5319 355° North 166 191 12,500  Level Seattle Center
Mon 01:26:12 PM 43.4308 -122.5364 356° North 165 190 12,500  Level Seattle Center
Mon 01:27:14 PM 43.4853 -122.5436 355° North 165 190 12,500  Level Seattle Center
Mon 01:28:15 PM 43.5311 -122.5492 355° North 164 189 12,500  Level Seattle Center
Mon 01:29:16 PM 43.5772 -122.5547 355° North 165 190 12,500  Level Seattle Center
Mon 01:30:17 PM 43.6217 -122.5606 355° North 163 188 12,500  Level Seattle Center
Mon 01:31:18 PM 43.6664 -122.5658 355° North 162 186 12,500  Level Seattle Center
Mon 01:32:20 PM 43.7125 -122.5722 354° North 164 189 12,500  Level Seattle Center
Mon 01:33:21 PM 43.7578 -122.5781 355° North 164 189 12,500  Level Seattle Center
Mon 01:34:22 PM 43.8044 -122.5828 356° North 166 191 12,500  Level Seattle Center
Mon 01:35:23 PM 43.8500 -122.5872 356° North 165 190 12,500  Level Seattle Center
Mon 01:36:24 PM 43.8956 -122.5936 354° North 165 190 12,500  Level Seattle Center
Mon 01:37:26 PM 43.9508 -122.6003 355° North 166 191 12,500  Level Seattle Center
Mon 01:38:27 PM 43.9967 -122.6061 355° North 166 191 12,500  Level Seattle Center
Mon 01:39:28 PM 44.0425 -122.6131 354° North 166 191 12,500  Level Seattle Center
Mon 01:40:29 PM 44.0883 -122.6189 355° North 166 191 12,500  Level Seattle Center
Mon 01:41:31 PM 44.1333 -122.6244 355° North 163 188 12,500 -49 Level Seattle Center
Mon 01:42:32 PM 44.1789 -122.6303 355° North 164 189 12,400 -295 Descending Seattle Center
Mon 01:43:33 PM 44.2272 -122.6361 355° North 173 199 11,900 -492 Descending Seattle Center
Mon 01:44:34 PM 44.2792 -122.6433 354° North 185 213 11,400 -590 Descending Seattle Center
Mon 01:45:35 PM 44.3308 -122.6492 355° North 186 214 10,700 -683 Descending Seattle Center
Mon 01:46:37 PM 44.3814 -122.6564 354° North 186 214 10,000 -683 Descending Seattle Center
Mon 01:47:38 PM 44.4414 -122.6633 355° North 182 209 9,300 -689 Descending Seattle Center
Mon 01:48:39 PM 44.4894 -122.6708 354° North 176 203 8,600 -590 Descending Seattle Center
Mon 01:49:40 PM 44.5375 -122.6764 355° North 175 201 8,100 -492 Descending Seattle Center
Mon 01:50:41 PM 44.5836 -122.6825 355° North 169 194 7,600 -488 Descending Seattle Center
Mon 01:51:43 PM 44.6297 -122.6886 355° North 167 192 7,100 -488 Descending Seattle Center
Mon 01:52:44 PM 44.6767 -122.6956 354° North 165 190 6,600 -443 Descending Seattle Center
Mon 01:53:45 PM 44.7222 -122.7003 356° North 168 193 6,200 -492 Descending Seattle Center
Mon 01:54:46 PM 44.7683 -122.7075 354° North 167 192 5,600 -492 Descending Seattle Center
Mon 01:55:47 PM 44.8125 -122.7125 355° North 161 185 5,200 -488 Descending Seattle Center
Mon 01:56:49 PM 44.8658 -122.7194 355° North 161 185 4,600 -537 Descending Seattle Center
Mon 01:57:50 PM 44.9100 -122.7264 354° North 160 184 4,100 -416 Descending Seattle Center
Mon 01:58:30 PM 44.9400 -122.7281 358° North 171 197 3,900 -300 Descending Seattle Center

Login

Don't have an account? Register now (free) for customized features, flight alerts, and more!